Skip Navigation Links Skip Navigation Links

Current Weather

General Wm J Fox Airfield, Lancaster, Calif.

For information only: do not use for flight planning or navigation.
Latest weather
Observation time Monday, October 18, 2021 11:56 PM PDT
Local time Tuesday, October 19, 2021 12:45 AM PDT
Flight conditions Visual Meteorological Conditions
Winds
Wind speed calm
Visibility 10 mi.
Sky condition
Ceiling unlimited
Sky clear
Temperature 41°F
Dewpoint 28°F
Altimeter 30.02 in.Hg
Derived measurements
Relative humidity 60%
Wind chill 41°F
Density altitude 1106 ft.
Sea-level pressure 30.03 in.Hg
Remarks
Fully automated report.
Automated weather observing station with precipitation discriminator.
METAR KWJF 190656Z AUTO 00000KT 10SM CLR 05/M02 A3002 RMK AO2 SLP168 T00501022

Settings

Location code

InnerDrive.Weather 4.0.6770.0 Release CLR 4.0.30319.42000
Copyright ©2018 Inner Drive Technology. All rights reserved. Portions Copyright ©1986-2018 David Braverman.

Find weather

Site navigation


Skip Navigation Links

Place info

Page info

PayPal - The safer, easier way to pay online!

Return home.

Copyright ©2021 Inner Drive Technology. Purveyors of fine, hand-crafted computer software. Page printed 2021-10-19T07:45:39 UTC.